createdAt,value
2022-11-06T00:00:44.700Z,0
2022-11-06T00:01:45.806Z,0
2022-11-06T00:02:45.510Z,0
2022-11-06T00:03:44.645Z,0
2022-11-06T00:04:45.150Z,0
2022-11-06T00:05:44.830Z,0
2022-11-06T00:06:44.564Z,0
2022-11-06T00:07:44.808Z,0
2022-11-06T00:08:44.528Z,0
2022-11-06T00:09:44.789Z,0
2022-11-06T00:10:44.504Z,0
2022-11-06T00:11:44.486Z,0
2022-11-06T00:12:44.734Z,0
2022-11-06T00:13:44.483Z,0
2022-11-06T00:14:44.688Z,0
2022-11-06T00:15:44.669Z,0
2022-11-06T00:16:44.393Z,0
2022-11-06T00:17:44.672Z,0
2022-11-06T00:18:44.876Z,0
2022-11-06T00:19:44.379Z,0
2022-11-06T00:20:44.600Z,0
2022-11-06T00:21:44.827Z,0
2022-11-06T00:22:45.701Z,0
2022-11-06T00:23:45.417Z,0
2022-11-06T00:24:45.643Z,0
2022-11-06T00:25:45.395Z,0
2022-11-06T00:26:47.577Z,0
2022-11-06T00:27:45.754Z,0
2022-11-06T00:28:45.574Z,0
2022-11-06T00:29:45.312Z,0
2022-11-06T00:30:45.306Z,0
2022-11-06T00:31:45.039Z,0
2022-11-06T00:32:45.507Z,0
2022-11-06T00:33:45.783Z,0
2022-11-06T00:34:45.238Z,0
2022-11-06T00:35:45.483Z,0
2022-11-06T00:36:45.218Z,0
2022-11-06T00:37:44.665Z,0
2022-11-06T00:38:44.903Z,0
2022-11-06T00:39:45.009Z,0
2022-11-06T00:40:44.875Z,0
2022-11-06T00:41:44.862Z,0
2022-11-06T00:42:45.342Z,0
2022-11-06T00:43:44.824Z,0
2022-11-06T00:44:45.087Z,0
2022-11-06T00:45:45.061Z,0
2022-11-06T00:46:45.273Z,0
2022-11-06T00:47:44.747Z,0
2022-11-06T00:48:45.249Z,0
2022-11-06T00:49:45.293Z,0
2022-11-06T00:50:45.212Z,0
2022-11-06T00:51:45.046Z,0
2022-11-06T00:52:45.192Z,0
2022-11-06T00:53:44.914Z,0
2022-11-06T00:54:44.890Z,0
2022-11-06T00:55:44.869Z,0
2022-11-06T00:56:44.342Z,0
2022-11-06T00:57:45.085Z,0
2022-11-06T00:58:44.824Z,0
2022-11-06T00:59:44.822Z,0
2022-11-06T01:00:44.807Z,0
2022-11-06T01:01:45.290Z,0
2022-11-06T01:02:45.556Z,0
2022-11-06T01:03:44.751Z,0
2022-11-06T01:04:44.518Z,0
2022-11-06T01:05:45.128Z,0
2022-11-06T01:06:44.699Z,0
2022-11-06T01:07:44.713Z,0
2022-11-06T01:08:44.700Z,0
2022-11-06T01:09:44.140Z,0
2022-11-06T01:10:44.384Z,0
2022-11-06T01:12:18.752Z,0
2022-11-06T01:12:44.604Z,0
2022-11-06T01:13:44.584Z,0
2022-11-06T01:14:44.312Z,0
2022-11-06T01:15:44.546Z,0
2022-11-06T01:16:44.528Z,0
2022-11-06T01:17:44.252Z,0
2022-11-06T01:18:44.509Z,0
2022-11-06T01:19:44.758Z,0
2022-11-06T01:20:44.726Z,0
2022-11-06T01:21:44.756Z,0
2022-11-06T01:22:44.683Z,0
2022-11-06T01:23:44.179Z,0
2022-11-06T01:24:44.709Z,0
2022-11-06T01:25:44.381Z,0
2022-11-06T01:27:39.835Z,0
2022-11-06T01:27:50.119Z,0
2022-11-06T01:28:50.358Z,0
2022-11-06T01:29:50.602Z,0
2022-11-06T01:30:50.582Z,0
2022-11-06T01:31:50.566Z,0
2022-11-06T01:32:50.286Z,0
2022-11-06T01:34:22.605Z,0
2022-11-06T01:34:50.544Z,0
2022-11-06T01:35:50.757Z,0
2022-11-06T01:36:50.785Z,0
2022-11-06T01:37:50.463Z,0
2022-11-06T01:38:49.958Z,0
2022-11-06T01:39:50.726Z,0
2022-11-06T01:40:50.417Z,0
2022-11-06T01:41:50.426Z,0
2022-11-06T01:42:50.440Z,0
2022-11-06T01:43:50.366Z,0
2022-11-06T01:44:50.432Z,0
2022-11-06T01:45:50.350Z,0
2022-11-06T01:46:50.317Z,0
2022-11-06T01:47:49.777Z,0
2022-11-06T01:48:50.525Z,0
2022-11-06T01:49:50.509Z,0
2022-11-06T01:50:50.486Z,0
2022-11-06T01:51:50.218Z,0
2022-11-06T01:52:50.496Z,0
2022-11-06T01:53:50.183Z,0
2022-11-06T01:54:50.445Z,0
2022-11-06T01:55:50.181Z,0
2022-11-06T01:56:49.877Z,0
2022-11-06T01:57:49.598Z,0
2022-11-06T01:58:50.109Z,0
2022-11-06T01:59:50.086Z,0
2022-11-06T02:00:50.219Z,0
2022-11-06T02:01:50.618Z,0
2022-11-06T02:02:51.341Z,0
2022-11-06T02:03:50.018Z,0
2022-11-06T02:04:49.737Z,0
2022-11-06T02:05:49.725Z,0
2022-11-06T02:06:49.700Z,0
2022-11-06T02:07:49.931Z,0
2022-11-06T02:08:50.897Z,0
2022-11-06T02:09:50.168Z,0
2022-11-06T02:10:49.995Z,0
2022-11-06T02:11:49.886Z,0
2022-11-06T02:12:49.842Z,0
2022-11-06T02:13:49.831Z,0
2022-11-06T02:14:50.068Z,0
2022-11-06T02:15:50.053Z,0
2022-11-06T02:16:50.030Z,0
2022-11-06T02:17:49.753Z,0
2022-11-06T02:18:49.757Z,0
2022-11-06T02:19:49.470Z,0
2022-11-06T02:20:49.965Z,0
2022-11-06T02:21:49.693Z,0
2022-11-06T02:22:49.926Z,0
2022-11-06T02:23:49.458Z,0
2022-11-06T02:24:49.943Z,0
2022-11-06T02:25:49.617Z,0
2022-11-06T02:26:49.628Z,0
2022-11-06T02:27:49.609Z,0
2022-11-06T02:28:49.567Z,0
2022-11-06T02:29:49.298Z,0
2022-11-06T02:30:49.533Z,0
2022-11-06T02:31:49.256Z,0
2022-11-06T02:32:49.500Z,0
2022-11-06T02:33:48.971Z,0
2022-11-06T02:34:49.472Z,0
2022-11-06T02:35:49.435Z,0
2022-11-06T02:36:49.171Z,0
2022-11-06T02:37:49.662Z,0
2022-11-06T02:38:49.650Z,0
2022-11-06T02:39:49.403Z,0
2022-11-06T02:40:49.665Z,0
2022-11-06T02:41:49.091Z,0
2022-11-06T02:42:49.510Z,0
2022-11-06T02:43:49.071Z,0
2022-11-06T02:44:49.297Z,0
2022-11-06T02:45:49.017Z,0
2022-11-06T02:46:48.997Z,0
2022-11-06T02:47:49.230Z,0
2022-11-06T02:48:49.216Z,0
2022-11-06T02:49:48.944Z,0
2022-11-06T02:50:49.181Z,0
2022-11-06T02:51:49.167Z,0
2022-11-06T02:52:49.150Z,0
2022-11-06T02:53:48.876Z,0
2022-11-06T02:54:49.388Z,0
2022-11-06T02:55:48.593Z,0
2022-11-06T02:56:49.383Z,0
2022-11-06T02:57:48.549Z,0
2022-11-06T02:58:55.589Z,0
2022-11-06T02:59:49.059Z,0
2022-11-06T03:00:49.268Z,0
2022-11-06T03:01:49.546Z,0
2022-11-06T03:02:50.095Z,0
2022-11-06T03:03:48.731Z,0
2022-11-06T03:04:48.689Z,0
2022-11-06T03:05:48.930Z,0
2022-11-06T03:06:48.908Z,0
2022-11-06T03:07:49.148Z,0
2022-11-06T03:08:48.865Z,0
2022-11-06T03:09:48.358Z,0
2022-11-06T03:10:49.098Z,0
2022-11-06T03:11:48.571Z,0
2022-11-06T03:12:48.850Z,0
2022-11-06T03:13:48.531Z,0
2022-11-06T03:14:48.537Z,0
2022-11-06T03:15:49.032Z,0
2022-11-06T03:16:48.986Z,0
2022-11-06T03:17:48.761Z,0
2022-11-06T03:18:48.694Z,0
2022-11-06T03:19:48.687Z,0
2022-11-06T03:20:48.926Z,0
2022-11-06T03:21:48.650Z,0
2022-11-06T03:22:48.895Z,0
2022-11-06T03:23:48.355Z,0
2022-11-06T03:24:48.602Z,0
2022-11-06T03:25:48.836Z,0
2022-11-06T03:26:48.567Z,0
2022-11-06T03:27:48.800Z,0
2022-11-06T03:28:48.829Z,0
2022-11-06T03:29:48.516Z,0
2022-11-06T03:30:48.269Z,0
2022-11-06T03:31:48.501Z,0
2022-11-06T03:49:50.217Z,0
2022-11-06T03:50:49.878Z,0
2022-11-06T03:51:49.871Z,0
2022-11-06T03:52:50.110Z,0
2022-11-06T03:53:49.554Z,0
2022-11-06T03:54:49.800Z,0
2022-11-06T03:55:49.007Z,0
2022-11-06T03:56:49.511Z,0
2022-11-06T03:57:49.490Z,0
2022-11-06T03:58:49.839Z,0
2022-11-06T03:59:49.456Z,0
2022-11-06T04:00:49.427Z,0
2022-11-06T04:01:49.637Z,0
2022-11-06T04:02:50.136Z,0
2022-11-06T04:03:49.630Z,0
2022-11-06T04:04:49.112Z,0
2022-11-06T04:05:49.690Z,0
2022-11-06T04:06:49.577Z,0
2022-11-06T04:07:49.298Z,0
2022-11-06T04:08:49.053Z,0
2022-11-06T04:09:49.267Z,0
2022-11-06T04:10:49.260Z,0
2022-11-06T04:11:49.486Z,0
2022-11-06T04:12:49.218Z,0
2022-11-06T04:13:48.683Z,0
2022-11-06T04:14:49.580Z,0
2022-11-06T04:15:49.165Z,0
2022-11-06T04:16:49.404Z,0
2022-11-06T04:17:49.135Z,0
2022-11-06T04:18:49.113Z,0
2022-11-06T04:19:48.840Z,0
2022-11-06T04:20:48.827Z,0
2022-11-06T04:21:49.598Z,0
2022-11-06T04:22:49.043Z,0
2022-11-06T04:23:49.020Z,0
2022-11-06T04:24:49.005Z,0
2022-11-06T04:25:48.736Z,0
2022-11-06T04:26:49.232Z,0
2022-11-06T04:27:48.707Z,0
2022-11-06T04:28:48.944Z,0
2022-11-06T04:29:48.935Z,0
2022-11-06T04:30:48.909Z,0
2022-11-06T04:31:48.631Z,0
2022-11-06T04:32:49.130Z,0
2022-11-06T04:33:48.850Z,0
2022-11-06T04:34:48.836Z,0
2022-11-06T04:35:48.820Z,0
2022-11-06T04:36:48.544Z,0
2022-11-06T04:37:49.140Z,0
2022-11-06T04:38:48.766Z,0
2022-11-06T04:39:48.240Z,0
2022-11-06T04:40:48.732Z,0
2022-11-06T04:41:48.727Z,0
2022-11-06T04:42:48.967Z,0
2022-11-06T04:43:48.175Z,0
2022-11-06T04:44:48.658Z,0
2022-11-06T04:45:48.648Z,0
2022-11-06T04:46:48.382Z,0
2022-11-06T04:47:48.354Z,0
2022-11-06T04:48:48.588Z,0
2022-11-06T04:49:48.578Z,0
2022-11-06T04:50:48.842Z,0
2022-11-06T04:51:48.802Z,0
2022-11-06T04:52:48.006Z,0
2022-11-06T04:53:49.050Z,0
2022-11-06T04:54:48.737Z,0
2022-11-06T04:55:48.735Z,0
2022-11-06T04:56:53.195Z,0
2022-11-06T04:57:48.684Z,0
2022-11-06T04:58:48.187Z,0
2022-11-06T04:59:48.145Z,0
2022-11-06T05:00:48.550Z,0
2022-11-06T05:01:49.407Z,0
2022-11-06T05:02:48.353Z,0
2022-11-06T05:03:48.346Z,0
2022-11-06T05:04:48.061Z,0
2022-11-06T05:05:48.299Z,0
2022-11-06T05:06:48.272Z,0
2022-11-06T05:07:48.515Z,0
2022-11-06T05:08:48.508Z,0
2022-11-06T05:09:48.667Z,0
2022-11-06T05:10:47.947Z,0
2022-11-06T05:11:48.192Z,0
2022-11-06T05:12:48.434Z,0
2022-11-06T05:13:48.179Z,0
2022-11-06T05:14:47.885Z,0
2022-11-06T05:15:47.863Z,0
2022-11-06T05:16:48.362Z,0
2022-11-06T05:17:48.166Z,0
2022-11-06T05:18:47.810Z,0
2022-11-06T05:19:48.314Z,0
2022-11-06T05:20:47.778Z,0
2022-11-06T05:21:48.275Z,0
2022-11-06T05:22:47.742Z,0
2022-11-06T05:23:48.229Z,0
2022-11-06T05:24:48.228Z,0
2022-11-06T05:25:48.298Z,0
2022-11-06T05:26:47.931Z,0
2022-11-06T05:27:47.923Z,0
2022-11-06T05:28:47.893Z,0
2022-11-06T05:29:47.642Z,0
2022-11-06T05:30:47.616Z,0
2022-11-06T05:31:47.851Z,0
2022-11-06T05:32:47.564Z,0
2022-11-06T05:33:47.544Z,0
2022-11-06T05:34:48.038Z,0
2022-11-06T05:35:47.514Z,0
2022-11-06T05:36:47.758Z,0
2022-11-06T05:37:47.735Z,0
2022-11-06T05:38:47.722Z,0
2022-11-06T05:39:49.156Z,0
2022-11-06T05:40:47.935Z,4
2022-11-06T05:41:48.349Z,4
2022-11-06T05:42:47.124Z,0
2022-11-06T05:43:47.620Z,4
2022-11-06T05:44:47.858Z,4
2022-11-06T05:45:47.592Z,8
2022-11-06T05:46:55.894Z,4
2022-11-06T05:47:47.554Z,8
2022-11-06T05:48:47.534Z,8
2022-11-06T05:49:47.521Z,12
2022-11-06T05:50:46.989Z,12
2022-11-06T05:51:47.480Z,16
2022-11-06T05:52:47.725Z,16
2022-11-06T05:53:47.699Z,20
2022-11-06T05:54:47.686Z,24
2022-11-06T05:55:47.666Z,28
2022-11-06T05:56:47.397Z,32
2022-11-06T05:57:47.740Z,36
2022-11-06T05:58:47.110Z,44
2022-11-06T05:59:47.344Z,48
2022-11-06T06:00:47.343Z,56
2022-11-06T06:01:47.739Z,64
2022-11-06T06:02:47.947Z,72
2022-11-06T06:03:47.017Z,80
2022-11-06T06:04:47.509Z,88
2022-11-06T06:05:46.977Z,96
2022-11-06T06:06:47.218Z,104
2022-11-06T06:07:47.196Z,112
2022-11-06T06:08:47.183Z,124
2022-11-06T06:09:47.415Z,136
2022-11-06T06:10:47.153Z,144
2022-11-06T06:11:47.135Z,156
2022-11-06T06:12:47.115Z,172
2022-11-06T06:13:47.573Z,188
2022-11-06T06:14:53.069Z,204
2022-11-06T06:15:47.059Z,220
2022-11-06T06:16:47.038Z,236
2022-11-06T06:17:47.028Z,252
2022-11-06T06:18:47.007Z,268
2022-11-06T06:19:46.758Z,288
2022-11-06T06:20:46.710Z,308
2022-11-06T06:21:46.702Z,328
2022-11-06T06:22:46.673Z,352
2022-11-06T06:23:46.919Z,372
2022-11-06T06:24:47.129Z,396
2022-11-06T06:25:46.622Z,420
2022-11-06T06:26:46.866Z,444
2022-11-06T06:27:46.584Z,472
2022-11-06T06:28:46.567Z,496
2022-11-06T06:29:47.274Z,520
2022-11-06T06:30:46.285Z,548
2022-11-06T06:31:47.848Z,572
2022-11-06T06:32:47.574Z,588
2022-11-06T06:33:47.814Z,608
2022-11-06T06:34:47.021Z,632
2022-11-06T06:35:47.796Z,648
2022-11-06T06:36:47.248Z,668
2022-11-06T06:37:47.262Z,684
2022-11-06T06:38:47.479Z,700
2022-11-06T06:39:46.942Z,716
2022-11-06T06:40:47.437Z,728
2022-11-06T06:41:47.158Z,748
2022-11-06T06:42:47.398Z,768
2022-11-06T06:43:47.634Z,784
2022-11-06T06:44:47.106Z,796
2022-11-06T06:45:47.752Z,816
2022-11-06T06:46:47.326Z,828
2022-11-06T06:47:47.053Z,848
2022-11-06T06:48:47.544Z,860
2022-11-06T06:49:47.530Z,872
2022-11-06T06:50:46.992Z,884
2022-11-06T06:51:46.980Z,900
2022-11-06T06:52:47.217Z,912
2022-11-06T06:53:47.203Z,924
2022-11-06T06:54:47.435Z,940
2022-11-06T06:55:47.422Z,948
2022-11-06T06:56:47.156Z,964
2022-11-06T06:57:47.135Z,972
2022-11-06T06:58:47.109Z,992
2022-11-06T06:59:47.094Z,996
2022-11-06T07:00:47.471Z,1008
2022-11-06T07:01:48.170Z,1024
2022-11-06T07:02:47.055Z,1028
2022-11-06T07:03:46.769Z,1040
2022-11-06T07:04:47.014Z,1056
2022-11-06T07:05:47.396Z,1064
2022-11-06T07:06:46.482Z,1076
2022-11-06T07:07:46.705Z,1084
2022-11-06T07:08:46.955Z,1096
2022-11-06T07:09:46.922Z,1108
2022-11-06T07:10:46.900Z,1116
2022-11-06T07:11:47.145Z,1120
2022-11-06T07:12:46.609Z,1132
2022-11-06T07:13:46.585Z,1144
2022-11-06T07:14:47.089Z,1156
2022-11-06T07:15:46.924Z,1160
2022-11-06T07:16:53.536Z,1164
2022-11-06T07:17:47.396Z,1172
2022-11-06T07:18:46.517Z,1184
2022-11-06T07:19:47.001Z,1188
2022-11-06T07:20:46.473Z,1196
2022-11-06T07:21:46.452Z,1204
2022-11-06T07:22:46.428Z,1212
2022-11-06T07:23:46.680Z,1220
2022-11-06T07:24:46.651Z,1220
2022-11-06T07:25:46.639Z,1228
2022-11-06T07:26:46.363Z,1232
2022-11-06T07:27:46.857Z,1232
2022-11-06T07:28:46.584Z,1244
2022-11-06T07:29:46.563Z,1252
2022-11-06T07:30:46.551Z,1264
2022-11-06T07:31:46.587Z,1272
2022-11-06T07:32:46.254Z,1280
2022-11-06T07:33:46.847Z,1280
2022-11-06T07:34:46.219Z,1292
2022-11-06T07:35:46.456Z,1296
2022-11-06T07:36:46.438Z,1300
2022-11-06T07:37:46.417Z,1312
2022-11-06T07:38:46.465Z,1328
2022-11-06T07:39:46.127Z,1328
2022-11-06T07:40:46.517Z,1328
2022-11-06T07:41:46.095Z,1340
2022-11-06T07:42:50.377Z,1336
2022-11-06T07:43:46.314Z,1348
2022-11-06T07:44:46.302Z,1356
2022-11-06T07:45:46.541Z,1364
2022-11-06T07:46:46.518Z,1364
2022-11-06T07:47:46.514Z,1372
2022-11-06T07:48:45.972Z,1380
2022-11-06T07:49:53.661Z,1388
2022-11-06T07:50:45.941Z,1388
2022-11-06T07:51:46.432Z,1396
2022-11-06T07:52:46.193Z,1412
2022-11-06T07:53:46.213Z,1412
2022-11-06T07:54:45.612Z,1416
2022-11-06T07:55:49.258Z,1424
2022-11-06T07:56:45.576Z,1432
2022-11-06T07:57:46.078Z,1432
2022-11-06T07:58:46.311Z,1432
2022-11-06T07:59:46.049Z,1436
2022-11-06T08:00:45.855Z,1440
2022-11-06T08:01:46.108Z,1432
2022-11-06T08:02:45.880Z,1436
2022-11-06T08:03:45.979Z,1432
2022-11-06T08:04:46.214Z,1444
2022-11-06T08:05:46.470Z,1440
2022-11-06T08:06:45.928Z,1436
2022-11-06T08:07:45.902Z,1444
2022-11-06T08:08:45.891Z,1444
2022-11-06T08:09:45.641Z,1436
2022-11-06T08:10:45.853Z,1452
2022-11-06T08:11:45.840Z,1444
2022-11-06T08:12:45.559Z,1452
2022-11-06T08:13:45.800Z,1456
2022-11-06T08:14:48.048Z,1444
2022-11-06T08:15:45.780Z,1448
2022-11-06T08:16:45.742Z,1448
2022-11-06T08:17:45.737Z,1448
2022-11-06T08:18:45.454Z,1452
2022-11-06T08:19:45.703Z,1456
2022-11-06T08:20:45.682Z,1456
2022-11-06T08:21:46.039Z,1468
2022-11-06T08:22:45.902Z,1480
2022-11-06T08:23:45.642Z,1480
2022-11-06T08:24:45.349Z,1480
2022-11-06T08:25:45.596Z,1492
2022-11-06T08:26:45.321Z,1504
2022-11-06T08:27:45.558Z,1512
2022-11-06T08:28:45.805Z,1520
2022-11-06T08:29:48.559Z,1524
2022-11-06T08:30:45.518Z,1524
2022-11-06T08:31:45.603Z,1540
2022-11-06T08:32:44.964Z,1544
2022-11-06T08:33:45.215Z,1548
2022-11-06T08:34:45.706Z,1560
2022-11-06T08:35:45.445Z,1564
2022-11-06T08:36:49.749Z,1564
2022-11-06T08:37:45.877Z,1580
2022-11-06T08:38:44.910Z,1584
2022-11-06T08:39:45.106Z,1588
2022-11-06T08:40:49.422Z,1584
2022-11-06T08:41:45.591Z,1596
2022-11-06T08:42:45.571Z,1604
2022-11-06T08:43:44.781Z,1600
2022-11-06T08:44:45.267Z,1596
2022-11-06T08:45:45.659Z,1600
2022-11-06T08:46:52.009Z,1608
2022-11-06T08:47:45.479Z,1612
2022-11-06T08:48:45.473Z,1608
2022-11-06T08:49:45.207Z,1612
2022-11-06T08:50:44.666Z,1612
2022-11-06T08:51:44.905Z,1624
2022-11-06T08:52:45.139Z,1624
2022-11-06T08:53:45.977Z,1624
2022-11-06T08:54:45.109Z,1624
2022-11-06T08:55:45.088Z,1632
2022-11-06T08:56:44.822Z,1628
2022-11-06T08:57:45.316Z,1624
2022-11-06T08:58:45.299Z,1628
2022-11-06T08:59:45.024Z,1628
2022-11-06T09:00:45.350Z,1624
2022-11-06T09:01:45.470Z,1624
2022-11-06T09:02:45.129Z,1620
2022-11-06T09:03:45.213Z,1620
2022-11-06T09:04:48.379Z,1620
2022-11-06T09:05:44.929Z,1616
2022-11-06T09:06:44.917Z,1620
2022-11-06T09:07:44.642Z,1616
2022-11-06T09:08:44.624Z,1620
2022-11-06T09:09:45.328Z,1628
2022-11-06T09:10:44.857Z,1628
2022-11-06T09:11:44.576Z,1620
2022-11-06T09:12:44.821Z,1628
2022-11-06T09:13:44.366Z,1640
2022-11-06T09:14:45.044Z,1640
2022-11-06T09:15:44.262Z,1640
2022-11-06T09:16:44.741Z,1636
2022-11-06T09:17:44.477Z,1640
2022-11-06T09:18:44.727Z,1644
2022-11-06T09:19:44.726Z,1644
2022-11-06T09:20:44.934Z,1636
2022-11-06T09:21:47.067Z,1624
2022-11-06T09:22:44.917Z,1632
2022-11-06T09:23:44.380Z,1632
2022-11-06T09:25:09.717Z,1628
2022-11-06T09:25:44.883Z,1628
2022-11-06T09:26:44.586Z,1624
2022-11-06T09:27:44.827Z,1620
2022-11-06T09:28:44.819Z,1628
2022-11-06T09:29:44.796Z,1636
2022-11-06T09:30:44.791Z,1640
2022-11-06T09:31:44.773Z,1648
2022-11-06T09:32:44.750Z,1644
2022-11-06T09:33:44.484Z,1648
2022-11-06T09:34:44.730Z,1644
2022-11-06T09:35:44.708Z,1644
2022-11-06T09:36:44.680Z,1640
2022-11-06T09:37:44.674Z,1644
2022-11-06T09:38:44.386Z,1644
2022-11-06T09:39:44.378Z,1648
2022-11-06T09:40:44.534Z,1652
2022-11-06T09:41:44.109Z,1648
2022-11-06T09:42:44.335Z,1644
2022-11-06T09:44:14.352Z,1648
2022-11-06T09:44:44.301Z,1652
2022-11-06T09:45:44.540Z,1660
2022-11-06T09:46:44.019Z,1660
2022-11-06T09:47:43.986Z,1660
2022-11-06T09:48:43.973Z,1664
2022-11-06T09:49:44.477Z,1668
2022-11-06T09:50:44.205Z,1668
2022-11-06T09:51:45.167Z,1672
2022-11-06T09:52:44.762Z,1676
2022-11-06T09:53:44.305Z,1692
2022-11-06T09:54:44.655Z,1704
2022-11-06T09:55:45.586Z,1720
2022-11-06T09:56:44.178Z,1728
2022-11-06T09:57:44.213Z,1736
2022-11-06T09:58:44.330Z,1740
2022-11-06T09:59:44.065Z,1740
2022-11-06T10:00:44.140Z,1748
2022-11-06T10:01:44.404Z,1752
2022-11-06T10:02:44.416Z,1744
2022-11-06T10:03:43.739Z,1748
2022-11-06T10:04:43.972Z,1752
2022-11-06T10:05:43.963Z,1748
2022-11-06T10:06:43.682Z,1752
2022-11-06T10:07:43.933Z,1764
2022-11-06T10:08:43.910Z,1772
2022-11-06T10:09:44.167Z,1788
2022-11-06T10:10:43.367Z,1796
2022-11-06T10:11:43.871Z,1804
2022-11-06T10:12:44.264Z,1800
2022-11-06T10:13:44.118Z,1812
2022-11-06T10:14:44.117Z,1820
2022-11-06T10:15:43.553Z,1828
2022-11-06T10:16:43.544Z,1828
2022-11-06T10:17:44.037Z,1836
2022-11-06T10:18:43.766Z,1840
2022-11-06T10:19:43.740Z,1836
2022-11-06T10:20:43.728Z,1840
2022-11-06T10:21:43.718Z,1844
2022-11-06T10:22:43.700Z,1836
2022-11-06T10:23:43.941Z,1840
2022-11-06T10:24:43.668Z,1844
2022-11-06T10:25:43.662Z,1852
2022-11-06T10:26:43.893Z,1840
2022-11-06T10:27:43.371Z,1832
2022-11-06T10:28:43.945Z,1840
2022-11-06T10:29:43.872Z,1848
2022-11-06T10:30:43.837Z,1852
2022-11-06T10:31:43.578Z,1852
2022-11-06T10:32:43.308Z,1860
2022-11-06T10:33:43.536Z,1864
2022-11-06T10:34:43.784Z,1860
2022-11-06T10:35:43.253Z,1864
2022-11-06T10:36:46.100Z,1868
2022-11-06T10:37:43.217Z,1868
2022-11-06T10:38:43.203Z,1864
2022-11-06T10:39:43.442Z,1868
2022-11-06T10:40:43.180Z,1868
2022-11-06T10:41:43.421Z,1868
2022-11-06T10:42:45.555Z,1868
2022-11-06T10:43:43.131Z,1872
2022-11-06T10:44:43.809Z,1860
2022-11-06T10:45:43.140Z,1868
2022-11-06T10:46:43.087Z,1864
2022-11-06T10:47:43.584Z,1868
2022-11-06T10:48:48.299Z,1868
2022-11-06T10:49:43.041Z,1868
2022-11-06T10:50:43.290Z,1864
2022-11-06T10:51:43.268Z,1872
2022-11-06T10:52:43.252Z,1872
2022-11-06T10:53:42.994Z,1864
2022-11-06T10:54:43.222Z,1872
2022-11-06T10:55:42.954Z,1872
2022-11-06T10:56:43.194Z,1880
2022-11-06T10:57:43.180Z,1876
2022-11-06T10:58:42.925Z,1880
2022-11-06T10:59:43.415Z,1888
2022-11-06T11:00:43.509Z,1884
2022-11-06T11:01:44.087Z,1884
2022-11-06T11:02:43.627Z,1880
2022-11-06T11:03:42.837Z,1876
2022-11-06T11:04:43.384Z,1876
2022-11-06T11:05:43.317Z,1880
2022-11-06T11:06:42.794Z,1884
2022-11-06T11:07:42.781Z,1880
2022-11-06T11:08:43.279Z,1876
2022-11-06T11:09:43.271Z,1872
2022-11-06T11:10:48.638Z,1880
2022-11-06T11:11:43.233Z,1876
2022-11-06T11:12:42.968Z,1876
2022-11-06T11:13:42.948Z,1868
2022-11-06T11:14:43.188Z,1888
2022-11-06T11:15:42.944Z,1880
2022-11-06T11:16:43.235Z,1876
2022-11-06T11:17:42.917Z,1876
2022-11-06T11:18:42.892Z,1872
2022-11-06T11:19:42.882Z,1864
2022-11-06T11:20:43.113Z,1868
2022-11-06T11:21:42.583Z,1876
2022-11-06T11:22:42.964Z,1872
2022-11-06T11:23:43.037Z,1876
2022-11-06T11:24:43.031Z,1868
2022-11-06T11:25:42.756Z,1864
2022-11-06T11:26:43.263Z,1860
2022-11-06T11:27:43.235Z,1864
2022-11-06T11:28:42.972Z,1860
2022-11-06T11:29:43.220Z,1852
2022-11-06T11:30:42.680Z,1860
2022-11-06T11:31:42.666Z,1860
2022-11-06T11:32:43.378Z,1852
2022-11-06T11:33:43.275Z,1852
2022-11-06T11:34:52.708Z,1844
2022-11-06T11:35:43.122Z,1848
2022-11-06T11:36:42.854Z,1848
2022-11-06T11:37:42.846Z,1836
2022-11-06T11:38:42.587Z,1840
2022-11-06T11:39:42.580Z,1832
2022-11-06T11:40:43.199Z,1832
2022-11-06T11:41:42.540Z,1832
2022-11-06T11:42:42.767Z,1824
2022-11-06T11:43:42.509Z,1820
2022-11-06T11:44:42.744Z,1816
2022-11-06T11:45:42.733Z,1812
2022-11-06T11:46:42.714Z,1804
2022-11-06T11:47:42.706Z,1812
2022-11-06T11:48:43.025Z,1812
2022-11-06T11:49:42.692Z,1804
2022-11-06T11:50:42.653Z,1800
2022-11-06T11:51:42.650Z,1800
2022-11-06T11:52:45.105Z,1800
2022-11-06T11:53:42.363Z,1788
2022-11-06T11:54:42.603Z,1788
2022-11-06T11:55:42.326Z,1788
2022-11-06T11:57:11.780Z,1780
2022-11-06T11:57:42.557Z,1784
2022-11-06T11:58:42.802Z,1768
2022-11-06T11:59:42.293Z,1768
2022-11-06T12:00:42.291Z,1776
2022-11-06T12:01:42.561Z,1772
2022-11-06T12:02:43.297Z,1760
2022-11-06T12:03:42.725Z,1760
2022-11-06T12:04:42.913Z,1752
2022-11-06T12:05:42.466Z,1756
2022-11-06T12:06:42.698Z,1752
2022-11-06T12:07:48.778Z,1756
2022-11-06T12:08:42.658Z,1752
2022-11-06T12:09:42.648Z,1748
2022-11-06T12:10:42.399Z,1740
2022-11-06T12:11:42.622Z,1744
2022-11-06T12:12:42.345Z,1740
2022-11-06T12:13:42.075Z,1732
2022-11-06T12:14:42.326Z,1740
2022-11-06T12:15:42.307Z,1728
2022-11-06T12:16:42.032Z,1732
2022-11-06T12:17:42.018Z,1732
2022-11-06T12:18:42.273Z,1728
2022-11-06T12:19:41.996Z,1716
2022-11-06T12:20:42.558Z,1720
2022-11-06T12:21:42.494Z,1708
2022-11-06T12:22:42.208Z,1708
2022-11-06T12:23:41.935Z,1700
2022-11-06T12:24:42.184Z,1696
2022-11-06T12:25:42.160Z,1696
2022-11-06T12:26:41.899Z,1696
2022-11-06T12:27:42.136Z,1692
2022-11-06T12:28:42.126Z,1692
2022-11-06T12:29:42.106Z,1688
2022-11-06T12:30:42.370Z,1688
2022-11-06T12:31:41.818Z,1672
2022-11-06T12:32:42.068Z,1684
2022-11-06T12:34:20.106Z,1672
2022-11-06T12:34:42.043Z,1644
2022-11-06T12:35:41.761Z,1572
2022-11-06T12:36:42.357Z,1668
2022-11-06T12:37:41.759Z,1668
2022-11-06T12:38:41.980Z,1672
2022-11-06T12:39:42.220Z,1664
2022-11-06T12:40:41.955Z,1664
2022-11-06T12:41:41.431Z,1664
2022-11-06T12:42:41.663Z,1664
2022-11-06T12:43:42.171Z,1656
2022-11-06T12:44:41.636Z,1660
2022-11-06T12:45:41.371Z,1664
2022-11-06T12:46:41.865Z,1676
2022-11-06T12:47:41.593Z,1648
2022-11-06T12:48:41.832Z,1648
2022-11-06T12:49:41.817Z,1664
2022-11-06T12:50:41.806Z,1656
2022-11-06T12:51:41.536Z,1652
2022-11-06T12:52:42.119Z,1636
2022-11-06T12:53:42.043Z,1628
2022-11-06T12:54:42.016Z,1664
2022-11-06T12:55:41.997Z,1672
2022-11-06T12:56:41.469Z,1636
2022-11-06T12:57:41.458Z,1612
2022-11-06T12:58:41.450Z,1612
2022-11-06T12:59:41.680Z,1600
2022-11-06T13:00:41.670Z,1592
2022-11-06T13:01:42.421Z,1588
2022-11-06T13:02:42.279Z,1580
2022-11-06T13:03:41.629Z,1580
2022-11-06T13:04:41.868Z,1572
2022-11-06T13:05:41.357Z,1572
2022-11-06T13:06:41.841Z,1556
2022-11-06T13:07:41.584Z,1552
2022-11-06T13:08:41.729Z,1548
2022-11-06T13:09:41.831Z,1544
2022-11-06T13:10:41.270Z,1544
2022-11-06T13:11:41.251Z,1540
2022-11-06T13:12:41.239Z,1536
2022-11-06T13:13:41.227Z,1536
2022-11-06T13:14:41.480Z,1532
2022-11-06T13:15:41.453Z,1528
2022-11-06T13:16:41.437Z,1528
2022-11-06T13:17:41.165Z,1528
2022-11-06T13:18:41.154Z,1516
2022-11-06T13:19:41.400Z,1516
2022-11-06T13:20:41.385Z,1512
2022-11-06T13:21:41.383Z,1508
2022-11-06T13:22:41.096Z,1508
2022-11-06T13:23:41.081Z,1504
2022-11-06T13:24:41.662Z,1500
2022-11-06T13:25:46.428Z,1492
2022-11-06T13:26:41.566Z,1488
2022-11-06T13:27:41.289Z,1488
2022-11-06T13:28:41.528Z,1484
2022-11-06T13:29:41.600Z,1476
2022-11-06T13:30:40.738Z,1476
2022-11-06T13:31:41.228Z,1480
2022-11-06T13:32:41.209Z,1476
2022-11-06T13:33:40.689Z,1472
2022-11-06T13:34:41.186Z,1468
2022-11-06T13:35:40.960Z,1468
2022-11-06T13:36:41.184Z,1468
2022-11-06T13:37:41.149Z,1460
2022-11-06T13:38:41.129Z,1456
2022-11-06T13:39:41.056Z,1452
2022-11-06T13:40:41.449Z,1448
2022-11-06T13:41:41.371Z,1448
2022-11-06T13:42:41.085Z,1440
2022-11-06T13:43:41.054Z,1440
2022-11-06T13:44:40.815Z,1436
2022-11-06T13:45:41.437Z,1432
2022-11-06T13:46:40.541Z,1424
2022-11-06T13:47:40.747Z,1416
2022-11-06T13:48:44.571Z,1412
2022-11-06T13:49:41.244Z,1408
2022-11-06T13:50:40.703Z,1404
2022-11-06T13:51:40.686Z,1396
2022-11-06T13:52:40.697Z,1400
2022-11-06T13:53:40.661Z,1396
2022-11-06T13:54:40.645Z,1396
2022-11-06T13:55:41.252Z,1388
2022-11-06T13:56:41.140Z,1384
2022-11-06T13:57:40.881Z,1380
2022-11-06T13:58:41.098Z,1372
2022-11-06T13:59:41.402Z,1372
2022-11-06T14:00:40.818Z,1364
2022-11-06T14:01:41.345Z,1360
2022-11-06T14:02:41.061Z,1356
2022-11-06T14:03:40.775Z,1356
2022-11-06T14:04:40.506Z,1344
2022-11-06T14:05:40.745Z,1340
2022-11-06T14:06:40.477Z,1340
2022-11-06T14:07:40.735Z,1332
2022-11-06T14:08:40.466Z,1324
2022-11-06T14:09:40.457Z,1320
2022-11-06T14:10:40.727Z,1308
2022-11-06T14:11:40.686Z,1296